Time;durP1;ratioP1;P1;durP2;ratioP2;P2;SDS_P1;SDS_P2;PMS_P1;PMS_P2;Temp;Humidity;BMP_temperature;BMP_pressure;BME280_temperature;BME280_humidity;BME280_pressure;Samples;Min_cycle;Max_cycle;Signal;HPM_P1;HPM_P2
2021/12/31 00:01:18;;;;;;;;;;;;;;;;;;;;;
2021/12/31 00:07:06;;;;;;;12.35;2.92;;;;;;;;;;4975390;28;20039;-84
2021/12/31 00:09:32;;;;;;;18.63;2.70;;;;;;;;;;4994895;28;20109;-85
2021/12/31 00:12:02;;;;;;;11.60;3.15;;;;;;;;;;4998912;28;20053;-86
2021/12/31 00:14:40;;;;;;;9.48;2.97;;;;;;;;;;4997088;28;20026;-85
2021/12/31 00:17:38;;;;;;;10.00;2.80;;;;;;;;;;4997272;28;20031;-85
2021/12/31 00:20:23;;;;;;;8.93;2.92;;;;;;;;;;4976434;28;20360;-85
2021/12/31 00:23:05;;;;;;;7.18;2.80;;;;;;;;;;4980986;28;20052;-83
2021/12/31 00:25:43;;;;;;;;;;;;;;;;;;4995982;28;20469;-84
2021/12/31 00:28:09;;;;;;;8.48;3.00;;;;;;;;;;4994335;28;19906;-84
2021/12/31 00:30:36;;;;;;;9.85;2.95;;;;;;;;;;4997937;28;20086;-84
2021/12/31 00:33:02;;;;;;;12.02;2.88;;;;;;;;;;4997183;28;20022;-85
2021/12/31 00:35:29;;;;;;;15.68;3.75;;;;;;;;;;4998959;28;20034;-85
2021/12/31 00:37:55;;;;;;;9.05;3.20;;;;;;;;;;4980269;28;20121;-85
2021/12/31 00:40:21;;;;;;;14.70;3.10;;;;;;;;;;4980676;28;20513;-84
2021/12/31 00:42:47;;;;;;;7.10;2.53;;;;;;;;;;4980703;28;20030;-85
2021/12/31 00:45:14;;;;;;;6.13;2.65;;;;;;;;;;4965616;28;20117;-84
2021/12/31 00:47:40;;;;;;;8.52;2.92;;;;;;;;;;4997689;28;20516;-85
2021/12/31 00:50:07;;;;;;;9.10;3.10;;;;;;;;;;4998882;28;20030;-84
2021/12/31 00:52:33;;;;;;;7.47;2.55;;;;;;;;;;4997524;28;20414;-84
2021/12/31 00:54:59;;;;;;;18.08;3.00;;;;;;;;;;4997644;28;20034;-85
2021/12/31 00:57:25;;;;;;;5.75;2.30;;;;;;;;;;4980882;28;20026;-84
2021/12/31 00:59:51;;;;;;;3.38;2.25;;;;;;;;;;4980954;28;20505;-84
2021/12/31 01:02:19;;;;;;;10.35;2.70;;;;;;;;;;4998392;28;20022;-85
2021/12/31 01:04:45;;;;;;;4.03;2.28;;;;;;;;;;4980423;28;20038;-85
2021/12/31 01:07:11;;;;;;;7.07;2.22;;;;;;;;;;4998272;28;20046;-85
2021/12/31 01:09:38;;;;;;;6.57;2.83;;;;;;;;;;4997513;28;20034;-84
2021/12/31 01:12:07;;;;;;;9.35;3.55;;;;;;;;;;4997423;28;20110;-84
2021/12/31 01:14:37;;;;;;;6.35;2.80;;;;;;;;;;4979314;28;20058;-85
2021/12/31 01:17:07;;;;;;;6.43;2.40;;;;;;;;;;4996867;28;20031;-86
2021/12/31 01:19:47;;;;;;;7.07;2.50;;;;;;;;;;4997702;28;20018;-85
2021/12/31 01:22:16;;;;;;;6.80;2.35;;;;;;;;;;4979121;28;20292;-85
2021/12/31 01:24:42;;;;;;;6.93;2.35;;;;;;;;;;4996375;28;20038;-85
2021/12/31 01:27:09;;;;;;;9.35;2.58;;;;;;;;;;4995048;28;20034;-85
2021/12/31 01:29:35;;;;;;;5.72;2.17;;;;;;;;;;4998679;28;20433;-84
2021/12/31 01:32:01;;;;;;;9.43;2.50;;;;;;;;;;4996513;28;20022;-84
2021/12/31 01:34:27;;;;;;;8.63;2.42;;;;;;;;;;4995811;28;20041;-84
2021/12/31 01:36:53;;;;;;;4.03;2.40;;;;;;;;;;4995718;28;20105;-84
2021/12/31 01:39:19;;;;;;;8.20;2.33;;;;;;;;;;4980492;28;20030;-87
2021/12/31 01:41:45;;;;;;;9.75;2.15;;;;;;;;;;4997252;28;20443;-84
2021/12/31 01:44:11;;;;;;;7.78;1.90;;;;;;;;;;4996120;28;20031;-84
2021/12/31 01:46:40;;;;;;;4.30;2.40;;;;;;;;;;4996064;28;20029;-84
2021/12/31 01:49:20;;;;;;;5.07;2.63;;;;;;;;;;4996547;28;20022;-83
2021/12/31 01:51:46;;;;;;;5.25;1.98;;;;;;;;;;4997154;28;20081;-84
2021/12/31 01:54:12;;;;;;;5.60;2.13;;;;;;;;;;4996877;28;20027;-85
2021/12/31 01:56:38;;;;;;;11.13;2.75;;;;;;;;;;4996028;28;20045;-85
2021/12/31 01:59:05;;;;;;;6.13;2.45;;;;;;;;;;4997489;28;20479;-84
2021/12/31 02:01:31;;;;;;;6.20;2.15;;;;;;;;;;4999482;28;20101;-85
2021/12/31 02:03:59;;;;;;;7.90;2.25;;;;;;;;;;5002667;28;20038;-86
2021/12/31 02:06:25;;;;;;;6.53;2.45;;;;;;;;;;4999822;28;20014;-83
2021/12/31 02:08:51;;;;;;;7.88;2.58;;;;;;;;;;5000923;28;20018;-85
2021/12/31 02:11:17;;;;;;;5.88;2.00;;;;;;;;;;5017855;28;20010;-83
2021/12/31 02:13:44;;;;;;;7.82;2.67;;;;;;;;;;5000529;28;20105;-84
2021/12/31 02:16:10;;;;;;;5.93;2.47;;;;;;;;;;5008311;28;20030;-84
2021/12/31 02:18:36;;;;;;;5.05;2.10;;;;;;;;;;5003377;28;20030;-85
2021/12/31 02:21:07;;;;;;;4.20;2.10;;;;;;;;;;5004384;28;20025;-84
2021/12/31 02:23:42;;;;;;;3.80;2.00;;;;;;;;;;5016832;28;20015;-85
2021/12/31 02:26:09;;;;;;;5.47;2.97;;;;;;;;;;5013521;28;20038;-84
2021/12/31 02:28:35;;;;;;;6.03;2.20;;;;;;;;;;5000537;28;20054;-84
2021/12/31 02:31:03;;;;;;;7.28;2.40;;;;;;;;;;5000118;28;20034;-84
2021/12/31 02:33:29;;;;;;;8.82;3.05;;;;;;;;;;5000202;28;20085;-85
2021/12/31 02:35:55;;;;;;;6.47;2.45;;;;;;;;;;5005292;28;20101;-84
2021/12/31 02:38:21;;;;;;;8.07;2.80;;;;;;;;;;5009989;28;20058;-84
2021/12/31 02:40:47;;;;;;;6.57;3.15;;;;;;;;;;4989748;28;20193;-84
2021/12/31 02:43:13;;;;;;;9.85;3.28;;;;;;;;;;4999121;28;20074;-84
2021/12/31 02:45:41;;;;;;;11.50;2.90;;;;;;;;;;4998676;28;20113;-86
2021/12/31 02:48:07;;;;;;;8.68;3.58;;;;;;;;;;4980271;28;20026;-84
2021/12/31 02:50:34;;;;;;;5.55;3.40;;;;;;;;;;4980542;28;20049;-84
2021/12/31 02:53:06;;;;;;;8.25;3.45;;;;;;;;;;4979654;28;20110;-83
2021/12/31 02:55:32;;;;;;;7.68;3.13;;;;;;;;;;4982945;28;20053;-84
2021/12/31 02:57:59;;;;;;;5.63;3.15;;;;;;;;;;4984962;28;20117;-85
2021/12/31 03:00:26;;;;;;;7.40;3.17;;;;;;;;;;4983033;28;20022;-84
2021/12/31 03:02:52;;;;;;;16.15;3.70;;;;;;;;;;5001462;28;20048;-85
2021/12/31 03:05:19;;;;;;;11.45;3.20;;;;;;;;;;5016614;28;20026;-86
2021/12/31 03:07:47;;;;;;;9.20;3.78;;;;;;;;;;4995110;28;20081;-84
2021/12/31 03:10:14;;;;;;;10.30;3.40;;;;;;;;;;4995091;28;20034;-84
2021/12/31 03:12:40;;;;;;;9.70;3.40;;;;;;;;;;5000276;28;20050;-85
2021/12/31 03:15:07;;;;;;;8.05;3.25;;;;;;;;;;4997766;28;20022;-84
2021/12/31 03:17:33;;;;;;;6.47;3.38;;;;;;;;;;4998817;28;20026;-84
2021/12/31 03:20:10;;;;;;;9.90;3.47;;;;;;;;;;4998877;28;20094;-84
2021/12/31 03:22:36;;;;;;;5.82;3.10;;;;;;;;;;5000729;28;20019;-84
2021/12/31 03:25:02;;;;;;;6.18;2.90;;;;;;;;;;5000137;28;20482;-84
2021/12/31 03:27:28;;;;;;;10.30;3.35;;;;;;;;;;4998283;28;20570;-85
2021/12/31 03:29:54;;;;;;;10.07;3.65;;;;;;;;;;5000765;28;20030;-84
2021/12/31 03:32:20;;;;;;;8.25;3.28;;;;;;;;;;5000840;28;20033;-85
2021/12/31 03:34:46;;;;;;;8.85;3.45;;;;;;;;;;5000307;28;20106;-84
2021/12/31 03:37:12;;;;;;;6.45;2.72;;;;;;;;;;4999331;28;20142;-84
2021/12/31 03:39:38;;;;;;;6.88;3.65;;;;;;;;;;4981689;28;20486;-84
2021/12/31 03:42:04;;;;;;;14.25;3.90;;;;;;;;;;5000937;28;20033;-85
2021/12/31 03:44:30;;;;;;;11.60;3.10;;;;;;;;;;4981528;28;20041;-84
2021/12/31 03:46:56;;;;;;;9.60;3.70;;;;;;;;;;4998491;28;20030;-84
2021/12/31 03:49:22;;;;;;;8.73;3.70;;;;;;;;;;4982459;28;20034;-85
2021/12/31 03:51:48;;;;;;;10.38;3.88;;;;;;;;;;4999616;28;20114;-85
2021/12/31 03:54:14;;;;;;;11.18;3.85;;;;;;;;;;4981252;28;20027;-84
2021/12/31 03:56:40;;;;;;;10.60;3.83;;;;;;;;;;4981522;28;20495;-84
2021/12/31 03:59:06;;;;;;;10.35;3.70;;;;;;;;;;4980597;28;20030;-84
2021/12/31 04:01:32;;;;;;;12.18;4.00;;;;;;;;;;4998824;28;20054;-83
2021/12/31 04:03:58;;;;;;;11.43;3.78;;;;;;;;;;4998775;28;20069;-84
2021/12/31 04:06:24;;;;;;;9.20;4.10;;;;;;;;;;4981237;28;20129;-84
2021/12/31 04:08:51;;;;;;;6.28;3.60;;;;;;;;;;4998458;28;20033;-84
2021/12/31 04:11:17;;;;;;;11.20;3.63;;;;;;;;;;4979896;28;20034;-83
2021/12/31 04:13:43;;;;;;;9.82;4.28;;;;;;;;;;4998473;28;20088;-84
2021/12/31 04:16:09;;;;;;;8.13;3.63;;;;;;;;;;5004659;28;20018;-84
2021/12/31 04:18:35;;;;;;;7.20;3.80;;;;;;;;;;5001833;28;20027;-84
2021/12/31 04:21:01;;;;;;;7.22;3.42;;;;;;;;;;4977779;28;20023;-84
2021/12/31 04:23:30;;;;;;;8.20;3.33;;;;;;;;;;5001182;28;20111;-84
2021/12/31 04:25:57;;;;;;;13.75;3.45;;;;;;;;;;4999259;28;20375;-85
2021/12/31 04:28:23;;;;;;;6.50;3.47;;;;;;;;;;4980484;28;20037;-84
2021/12/31 04:30:49;;;;;;;10.27;3.67;;;;;;;;;;4998511;28;20031;-84
2021/12/31 04:33:15;;;;;;;6.65;3.45;;;;;;;;;;4998827;28;20033;-85
2021/12/31 04:35:41;;;;;;;6.60;3.30;;;;;;;;;;4998620;28;20034;-84
2021/12/31 04:38:07;;;;;;;6.90;3.67;;;;;;;;;;4997675;28;20105;-85
2021/12/31 04:40:33;;;;;;;11.35;3.58;;;;;;;;;;4980924;28;20037;-84
2021/12/31 04:42:59;;;;;;;8.57;3.65;;;;;;;;;;4998022;28;20090;-84
2021/12/31 04:45:25;;;;;;;7.38;3.17;;;;;;;;;;4998504;28;20104;-85
2021/12/31 04:47:52;;;;;;;10.10;3.63;;;;;;;;;;4979261;28;20026;-85
2021/12/31 04:50:18;;;;;;;10.00;4.03;;;;;;;;;;4979810;28;20041;-85
2021/12/31 04:52:44;;;;;;;9.48;3.72;;;;;;;;;;4995682;28;20058;-85
2021/12/31 04:55:11;;;;;;;9.65;3.72;;;;;;;;;;4997339;28;20477;-85
2021/12/31 04:57:37;;;;;;;11.65;4.05;;;;;;;;;;4977352;28;20073;-84
2021/12/31 05:00:04;;;;;;;9.48;3.45;;;;;;;;;;4997627;28;20121;-85
2021/12/31 05:02:30;;;;;;;8.75;3.65;;;;;;;;;;5012598;28;20011;-84
2021/12/31 05:04:56;;;;;;;7.85;3.67;;;;;;;;;;4984470;28;20405;-84
2021/12/31 05:07:22;;;;;;;6.28;3.47;;;;;;;;;;4978501;28;20037;-85
2021/12/31 05:09:48;;;;;;;9.10;3.33;;;;;;;;;;4994688;28;20061;-84
2021/12/31 05:12:20;;;;;;;9.65;3.92;;;;;;;;;;4996068;28;20018;-84
2021/12/31 05:14:47;;;;;;;12.45;4.13;;;;;;;;;;4996365;28;20065;-85
2021/12/31 05:17:13;;;;;;;10.50;3.80;;;;;;;;;;4995378;28;20065;-85
2021/12/31 05:19:43;;;;;;;13.27;3.35;;;;;;;;;;4997576;28;20030;-85
2021/12/31 05:22:10;;;;;;;8.88;3.33;;;;;;;;;;4995441;28;20018;-85
2021/12/31 05:24:36;;;;;;;5.20;2.72;;;;;;;;;;4996441;28;20034;-85
2021/12/31 05:27:03;;;;;;;10.52;3.05;;;;;;;;;;4980382;28;20097;-84
2021/12/31 05:29:29;;;;;;;6.10;3.20;;;;;;;;;;4978875;28;20090;-85
2021/12/31 05:31:55;;;;;;;9.00;3.60;;;;;;;;;;4996167;28;20489;-84
2021/12/31 05:34:21;;;;;;;7.97;3.25;;;;;;;;;;4977951;28;20038;-85
2021/12/31 05:36:48;;;;;;;8.65;3.47;;;;;;;;;;4996858;28;20479;-87
2021/12/31 05:39:14;;;;;;;8.38;4.05;;;;;;;;;;4998652;28;20031;-83
2021/12/31 05:41:40;;;;;;;12.40;5.00;;;;;;;;;;4996632;28;20466;-85
2021/12/31 05:44:06;;;;;;;13.63;6.60;;;;;;;;;;4996406;28;20474;-84
2021/12/31 05:46:32;;;;;;;12.38;6.07;;;;;;;;;;4996949;28;20104;-86
2021/12/31 05:48:59;;;;;;;12.95;6.43;;;;;;;;;;4983410;28;20019;-85
2021/12/31 05:51:26;;;;;;;15.68;6.88;;;;;;;;;;4998123;28;20485;-84
2021/12/31 05:53:52;;;;;;;7.07;4.20;;;;;;;;;;4982738;28;20046;-85
2021/12/31 05:56:18;;;;;;;11.55;3.67;;;;;;;;;;5000849;28;20042;-85
2021/12/31 05:58:44;;;;;;;7.85;3.95;;;;;;;;;;4981627;28;20045;-85
2021/12/31 06:01:10;;;;;;;6.57;3.70;;;;;;;;;;5000915;28;20030;-85
2021/12/31 06:03:36;;;;;;;7.13;3.35;;;;;;;;;;4997946;28;20084;-86
2021/12/31 06:06:02;;;;;;;7.20;4.00;;;;;;;;;;4997127;28;20050;-85
2021/12/31 06:08:28;;;;;;;12.20;3.28;;;;;;;;;;4997828;28;20169;-85
2021/12/31 06:10:54;;;;;;;7.15;3.25;;;;;;;;;;4999220;28;20537;-83
2021/12/31 06:13:20;;;;;;;5.60;2.80;;;;;;;;;;4980933;28;20026;-85
2021/12/31 06:15:49;;;;;;;6.30;2.75;;;;;;;;;;4998033;28;20030;-84
2021/12/31 06:18:15;;;;;;;7.53;3.45;;;;;;;;;;4979690;28;20199;-84
2021/12/31 06:20:41;;;;;;;5.97;3.35;;;;;;;;;;5008966;28;20105;-83
2021/12/31 06:23:07;;;;;;;7.40;3.60;;;;;;;;;;4976861;28;20026;-85
2021/12/31 06:25:33;;;;;;;7.70;3.63;;;;;;;;;;4993794;28;20034;-84
2021/12/31 06:28:01;;;;;;;5.93;3.50;;;;;;;;;;4976987;28;20033;-84
2021/12/31 06:30:27;;;;;;;7.43;3.35;;;;;;;;;;4993542;28;20042;-84
2021/12/31 06:32:53;;;;;;;8.13;3.08;;;;;;;;;;4976383;28;20027;-84
2021/12/31 06:35:20;;;;;;;8.85;2.90;;;;;;;;;;4994952;28;20050;-84
2021/12/31 06:37:48;;;;;;;8.90;2.80;;;;;;;;;;4995216;28;20030;-85
2021/12/31 06:40:15;;;;;;;4.38;2.88;;;;;;;;;;4977837;28;20095;-85
2021/12/31 06:42:41;;;;;;;6.03;2.85;;;;;;;;;;4996234;28;20094;-85
2021/12/31 06:45:07;;;;;;;7.18;3.05;;;;;;;;;;5007489;28;20039;-87
2021/12/31 06:47:33;;;;;;;5.22;2.60;;;;;;;;;;5003754;28;20074;-86
2021/12/31 06:50:00;;;;;;;9.48;3.38;;;;;;;;;;5014860;28;20092;-85
2021/12/31 06:52:26;;;;;;;6.68;3.47;;;;;;;;;;4987416;28;20421;-85
2021/12/31 06:54:52;;;;;;;4.30;2.92;;;;;;;;;;5009137;28;20050;-85
2021/12/31 06:57:18;;;;;;;5.95;2.97;;;;;;;;;;4990563;28;20042;-85
2021/12/31 06:59:44;;;;;;;13.80;2.95;;;;;;;;;;5009877;28;20061;-86
2021/12/31 07:02:10;;;;;;;8.10;3.03;;;;;;;;;;5013283;28;20031;-85
2021/12/31 07:04:36;;;;;;;3.03;2.20;;;;;;;;;;5005726;28;20030;-86
2021/12/31 07:07:02;;;;;;;8.80;3.30;;;;;;;;;;4985360;28;20023;-84
2021/12/31 07:09:28;;;;;;;4.40;3.05;;;;;;;;;;4986330;28;20673;-85
2021/12/31 07:11:54;;;;;;;5.47;2.53;;;;;;;;;;5003135;28;20026;-85
2021/12/31 07:14:20;;;;;;;5.85;2.67;;;;;;;;;;5003094;28;20034;-85
2021/12/31 07:16:47;;;;;;;9.15;3.38;;;;;;;;;;5002495;28;20030;-85
2021/12/31 07:19:13;;;;;;;6.68;3.30;;;;;;;;;;5003415;28;20030;-84
2021/12/31 07:21:39;;;;;;;9.20;3.13;;;;;;;;;;5009067;28;20014;-84
2021/12/31 07:24:05;;;;;;;9.77;2.90;;;;;;;;;;5020813;28;20030;-83
2021/12/31 07:26:31;;;;;;;7.72;3.63;;;;;;;;;;5020317;28;20031;-84
2021/12/31 07:28:57;;;;;;;6.53;2.60;;;;;;;;;;5019787;28;20045;-84
2021/12/31 07:31:23;;;;;;;6.35;3.33;;;;;;;;;;4989664;28;20101;-83
2021/12/31 07:33:49;;;;;;;7.45;4.05;;;;;;;;;;5001849;28;20018;-84
2021/12/31 07:36:15;;;;;;;7.07;2.97;;;;;;;;;;4985684;28;20039;-85
2021/12/31 07:38:48;;;;;;;8.95;3.08;;;;;;;;;;4986344;28;20426;-84
2021/12/31 07:41:14;;;;;;;4.75;3.05;;;;;;;;;;5000697;28;20046;-83
2021/12/31 07:43:40;;;;;;;3.08;2.17;;;;;;;;;;4982705;28;20033;-83
2021/12/31 07:46:06;;;;;;;5.90;2.83;;;;;;;;;;4999302;28;20754;-84
2021/12/31 07:48:31;;;;;;;6.22;2.70;;;;;;;;;;5002068;28;20018;-84
2021/12/31 07:50:57;;;;;;;5.63;3.13;;;;;;;;;;5002751;28;20034;-85
2021/12/31 07:53:24;;;;;;;5.78;2.65;;;;;;;;;;4982115;28;20023;-84
2021/12/31 07:55:50;;;;;;;12.80;2.60;;;;;;;;;;4997396;28;20037;-85
2021/12/31 07:58:16;;;;;;;4.88;2.80;;;;;;;;;;4996763;28;20096;-85
2021/12/31 08:00:42;;;;;;;7.70;2.33;;;;;;;;;;4998397;28;20113;-85
2021/12/31 08:03:08;;;;;;;7.22;2.20;;;;;;;;;;4998877;28;20042;-84
2021/12/31 08:05:34;;;;;;;6.65;2.67;;;;;;;;;;4979738;28;20034;-85
2021/12/31 08:08:04;;;;;;;6.68;2.42;;;;;;;;;;4978739;28;20027;-85
2021/12/31 08:10:32;;;;;;;4.80;2.47;;;;;;;;;;4997784;28;20494;-85
2021/12/31 08:12:59;;;;;;;5.65;2.30;;;;;;;;;;4998640;28;20026;-83
2021/12/31 08:15:25;;;;;;;8.25;2.33;;;;;;;;;;4980456;28;20069;-84
2021/12/31 08:17:54;;;;;;;4.60;2.13;;;;;;;;;;4999126;28;20053;-84
2021/12/31 08:20:20;;;;;;;5.75;2.30;;;;;;;;;;4979264;28;20064;-83
2021/12/31 08:22:46;;;;;;;3.20;1.80;;;;;;;;;;5005004;28;20165;-84
2021/12/31 08:25:12;;;;;;;2.90;1.90;;;;;;;;;;4984379;28;20037;-84
2021/12/31 08:27:38;;;;;;;4.20;2.45;;;;;;;;;;4979119;28;20037;-85
2021/12/31 08:30:06;;;;;;;3.03;1.92;;;;;;;;;;4995105;28;20117;-86
2021/12/31 08:32:32;;;;;;;1.98;0.90;;;;;;;;;;4966255;28;20510;-86
2021/12/31 08:34:58;;;;;;;5.80;1.45;;;;;;;;;;4977654;28;20034;-85
2021/12/31 08:37:24;;;;;;;3.00;1.13;;;;;;;;;;4995554;28;20058;-87
2021/12/31 08:39:50;;;;;;;2.22;1.00;;;;;;;;;;4995477;28;20510;-86
2021/12/31 08:42:16;;;;;;;1.17;1.08;;;;;;;;;;4981431;28;20119;-87
2021/12/31 08:44:42;;;;;;;5.72;1.00;;;;;;;;;;4995531;28;20130;-87
2021/12/31 08:47:08;;;;;;;7.50;0.90;;;;;;;;;;4996428;28;20023;-87
2021/12/31 08:49:34;;;;;;;2.42;0.60;;;;;;;;;;4977685;28;20030;-87
2021/12/31 08:52:00;;;;;;;1.42;0.90;;;;;;;;;;4995921;28;20023;-87
2021/12/31 08:54:26;;;;;;;2.38;1.05;;;;;;;;;;4997924;28;20061;-85
2021/12/31 08:56:52;;;;;;;3.85;0.77;;;;;;;;;;5002787;28;20038;-88
2021/12/31 08:59:19;;;;;;;2.83;0.90;;;;;;;;;;4998182;28;20031;-86
2021/12/31 09:01:45;;;;;;;3.53;0.68;;;;;;;;;;4997376;28;20023;-86
2021/12/31 09:04:11;;;;;;;3.65;0.65;;;;;;;;;;4977456;28;20030;-85
2021/12/31 09:06:37;;;;;;;1.20;0.60;;;;;;;;;;4978514;28;20022;-86
2021/12/31 09:09:03;;;;;;;1.35;0.60;;;;;;;;;;4996304;28;20450;-86
2021/12/31 09:11:30;;;;;;;3.55;0.63;;;;;;;;;;4994968;28;20034;-84
2021/12/31 09:13:57;;;;;;;1.88;0.65;;;;;;;;;;4974808;28;20034;-85
2021/12/31 09:16:23;;;;;;;1.42;0.75;;;;;;;;;;4993257;28;20014;-87
2021/12/31 09:18:49;;;;;;;1.88;0.50;;;;;;;;;;4978414;28;20034;-87
2021/12/31 09:21:20;;;;;;;1.30;0.60;;;;;;;;;;4977755;28;20084;-88
2021/12/31 09:23:46;;;;;;;1.05;0.55;;;;;;;;;;4996175;28;20042;-88
2021/12/31 09:26:12;;;;;;;2.03;0.80;;;;;;;;;;4978946;28;20037;-89
2021/12/31 09:28:39;;;;;;;1.50;0.90;;;;;;;;;;4978715;28;20048;-86
2021/12/31 09:31:07;;;;;;;1.60;0.50;;;;;;;;;;4984853;28;20046;-89
2021/12/31 09:33:33;;;;;;;1.20;0.70;;;;;;;;;;4978280;28;20031;-88
2021/12/31 09:35:59;;;;;;;2.08;0.70;;;;;;;;;;4977842;28;20115;-88
2021/12/31 09:38:25;;;;;;;2.72;0.70;;;;;;;;;;4979130;28;20026;-87
2021/12/31 09:40:51;;;;;;;2.00;0.73;;;;;;;;;;4996526;28;20102;-87
2021/12/31 09:43:19;;;;;;;3.88;0.85;;;;;;;;;;4977916;28;20121;-86
2021/12/31 09:45:47;;;;;;;1.83;0.68;;;;;;;;;;4977854;28;20018;-87
2021/12/31 09:48:14;;;;;;;2.92;0.68;;;;;;;;;;4995689;28;20058;-85
2021/12/31 09:50:42;;;;;;;2.67;0.70;;;;;;;;;;4978607;28;20049;-87
2021/12/31 09:53:09;;;;;;;2.97;0.90;;;;;;;;;;4976720;28;20121;-88
2021/12/31 09:56:01;;;;;;;2.97;0.77;;;;;;;;;;4994996;28;20478;-84
2021/12/31 09:58:29;;;;;;;2.25;1.02;;;;;;;;;;4983716;28;20054;-86
2021/12/31 10:01:15;;;;;;;1.38;0.50;;;;;;;;;;4978381;28;20434;-86
2021/12/31 10:04:17;;;;;;;0.93;0.40;;;;;;;;;;4993297;28;20042;-85
2021/12/31 10:06:59;;;;;;;1.23;0.60;;;;;;;;;;4992963;28;20029;-86
2021/12/31 10:09:25;;;;;;;1.45;0.73;;;;;;;;;;4974785;28;20470;-85
2021/12/31 10:11:52;;;;;;;0.75;0.50;;;;;;;;;;4993392;28;20029;-85
2021/12/31 10:14:32;;;;;;;1.35;0.47;;;;;;;;;;4975958;28;20023;-85
2021/12/31 10:16:58;;;;;;;;;;;;;;;;;;4976442;28;20022;-86
2021/12/31 10:19:24;;;;;;;1.90;0.50;;;;;;;;;;4994998;28;19910;-86
2021/12/31 10:21:57;;;;;;;1.48;0.60;;;;;;;;;;4998052;28;20117;-87
2021/12/31 10:24:29;;;;;;;3.10;0.63;;;;;;;;;;4982111;28;20501;-86
2021/12/31 10:26:57;;;;;;;1.42;0.50;;;;;;;;;;4990257;28;20030;-85
2021/12/31 10:29:23;;;;;;;1.40;0.70;;;;;;;;;;5010252;28;20045;-85
2021/12/31 10:31:53;;;;;;;1.40;0.70;;;;;;;;;;4997942;28;20057;-85
2021/12/31 10:34:26;;;;;;;3.95;0.80;;;;;;;;;;4998681;28;20026;-87
2021/12/31 10:36:52;;;;;;;3.00;0.75;;;;;;;;;;4978611;28;20026;-85
2021/12/31 10:39:23;;;;;;;3.83;1.02;;;;;;;;;;4978159;28;20070;-86
2021/12/31 10:42:01;;;;;;;5.13;0.90;;;;;;;;;;4978401;28;20054;-86
2021/12/31 10:45:03;;;;;;;1.42;0.95;;;;;;;;;;4998169;28;20026;-86
2021/12/31 10:47:29;;;;;;;;;;;;;;;;;;4972266;28;20027;-86
2021/12/31 10:50:01;;;;;;;3.20;1.30;;;;;;;;;;4985368;28;20400;-87
2021/12/31 10:52:37;;;;;;;3.72;1.13;;;;;;;;;;4981937;28;20033;-85
2021/12/31 10:55:15;;;;;;;2.47;1.00;;;;;;;;;;4994600;28;20056;-91
2021/12/31 10:57:41;;;;;;;0.98;0.80;;;;;;;;;;4977469;28;20038;-85
2021/12/31 11:00:08;;;;;;;1.42;0.88;;;;;;;;;;4981078;28;20150;-86
2021/12/31 11:02:40;;;;;;;5.05;0.90;;;;;;;;;;4999237;28;20034;-85
2021/12/31 11:05:31;;;;;;;1.67;0.90;;;;;;;;;;4997226;28;20094;-86
2021/12/31 11:08:02;;;;;;;1.15;0.80;;;;;;;;;;4978394;28;20043;-86
2021/12/31 11:10:29;;;;;;;2.00;1.20;;;;;;;;;;5006745;28;20113;-85
2021/12/31 11:12:56;;;;;;;1.95;1.00;;;;;;;;;;4999539;28;20054;-86
2021/12/31 11:15:22;;;;;;;3.22;1.40;;;;;;;;;;4981834;28;20019;-85
2021/12/31 11:17:54;;;;;;;3.20;1.60;;;;;;;;;;4980565;28;20026;-85
2021/12/31 11:20:21;;;;;;;4.13;1.80;;;;;;;;;;4969634;28;20078;-89
2021/12/31 11:22:47;;;;;;;3.53;1.42;;;;;;;;;;5001707;28;20065;-89
2021/12/31 11:25:29;;;;;;;3.28;1.85;;;;;;;;;;5020158;28;20098;-91
2021/12/31 11:27:57;;;;;;;2.67;2.08;;;;;;;;;;4985844;28;20042;-86
2021/12/31 11:30:26;;;;;;;2.22;1.50;;;;;;;;;;4999013;28;20053;-86
2021/12/31 11:32:55;;;;;;;3.42;1.65;;;;;;;;;;4979986;28;20103;-86
2021/12/31 11:35:33;;;;;;;3.17;1.80;;;;;;;;;;4999487;28;20030;-86
2021/12/31 11:38:00;;;;;;;2.75;1.77;;;;;;;;;;4980674;28;20015;-87
2021/12/31 11:40:32;;;;;;;2.90;1.50;;;;;;;;;;4998486;28;20034;-86
2021/12/31 11:43:25;;;;;;;1.70;1.20;;;;;;;;;;4980565;28;20026;-89
2021/12/31 11:46:12;;;;;;;4.18;1.70;;;;;;;;;;4997439;28;20031;-86
2021/12/31 11:48:48;;;;;;;2.17;1.20;;;;;;;;;;4998477;28;20034;-86
2021/12/31 11:51:17;;;;;;;1.85;1.15;;;;;;;;;;4979814;28;20027;-86
2021/12/31 11:54:03;;;;;;;1.98;1.27;;;;;;;;;;4981103;28;20046;-86
2021/12/31 11:56:35;;;;;;;2.90;1.60;;;;;;;;;;4996613;28;20076;-85
2021/12/31 11:59:21;;;;;;;2.08;1.17;;;;;;;;;;4999050;28;20037;-86
2021/12/31 12:01:47;;;;;;;2.95;1.55;;;;;;;;;;4972108;28;20110;-86
2021/12/31 12:04:26;;;;;;;1.95;1.10;;;;;;;;;;4978860;28;20053;-86
2021/12/31 12:06:52;;;;;;;1.73;1.20;;;;;;;;;;4976756;28;20034;-85
2021/12/31 12:09:18;;;;;;;2.10;1.55;;;;;;;;;;4977563;28;20026;-85
2021/12/31 12:12:05;;;;;;;3.55;1.35;;;;;;;;;;4978838;28;20046;-85
2021/12/31 12:14:37;;;;;;;6.15;1.85;;;;;;;;;;4977720;28;20027;-85
2021/12/31 12:17:05;;;;;;;4.90;1.92;;;;;;;;;;4981867;28;20026;-86
2021/12/31 12:19:47;;;;;;;3.05;1.63;;;;;;;;;;4998498;28;20029;-85
2021/12/31 12:22:27;;;;;;;3.63;1.88;;;;;;;;;;4998641;28;20447;-86
2021/12/31 12:24:55;;;;;;;4.90;1.90;;;;;;;;;;4997972;28;20041;-84
2021/12/31 12:27:22;;;;;;;3.10;2.30;;;;;;;;;;4981362;28;20045;-85
2021/12/31 12:29:49;;;;;;;4.90;2.20;;;;;;;;;;4981415;28;20027;-85
2021/12/31 12:32:16;;;;;;;10.05;3.85;;;;;;;;;;5004121;28;20078;-84
2021/12/31 12:34:43;;;;;;;6.47;2.72;;;;;;;;;;5019587;28;20086;-88
2021/12/31 12:37:09;;;;;;;6.85;2.75;;;;;;;;;;5018714;28;20026;-88
2021/12/31 12:39:43;;;;;;;4.63;2.53;;;;;;;;;;5000983;28;20044;-89
2021/12/31 12:42:15;;;;;;;4.80;2.88;;;;;;;;;;5003215;28;20030;-85
2021/12/31 12:44:57;;;;;;;7.22;4.00;;;;;;;;;;5000133;28;20478;-84
2021/12/31 12:47:24;;;;;;;6.10;3.47;;;;;;;;;;4982569;28;20058;-85
2021/12/31 12:50:00;;;;;;;10.07;4.50;;;;;;;;;;4984075;28;20054;-85
2021/12/31 12:52:26;;;;;;;4.75;3.22;;;;;;;;;;4996314;28;20047;-89
2021/12/31 12:55:11;;;;;;;7.40;3.40;;;;;;;;;;4993305;28;20054;-86
2021/12/31 12:57:37;;;;;;;5.68;3.70;;;;;;;;;;4980096;28;20026;-85
2021/12/31 13:00:04;;;;;;;7.50;3.95;;;;;;;;;;4997226;28;20022;-84
2021/12/31 13:02:36;;;;;;;7.95;4.07;;;;;;;;;;4978943;28;20045;-85
2021/12/31 13:05:06;;;;;;;5.10;3.53;;;;;;;;;;4995681;28;20426;-83
2021/12/31 13:07:32;;;;;;;4.85;3.35;;;;;;;;;;4995803;28;20030;-86
2021/12/31 13:10:08;;;;;;;6.07;3.65;;;;;;;;;;4978416;28;20058;-85
2021/12/31 13:12:36;;;;;;;6.10;4.38;;;;;;;;;;4978715;28;20037;-86
2021/12/31 13:15:03;;;;;;;10.18;4.32;;;;;;;;;;4995009;28;20022;-85
2021/12/31 13:17:32;;;;;;;7.72;5.10;;;;;;;;;;4998591;28;20032;-85
2021/12/31 13:20:24;;;;;;;8.93;5.38;;;;;;;;;;4978253;28;20065;-86
2021/12/31 13:22:54;;;;;;;7.97;5.20;;;;;;;;;;4974360;28;20520;-86
2021/12/31 13:25:20;;;;;;;11.07;5.55;;;;;;;;;;4995812;28;20030;-85
2021/12/31 13:27:46;;;;;;;8.68;4.97;;;;;;;;;;4976721;28;20161;-86
2021/12/31 13:30:13;;;;;;;8.88;5.05;;;;;;;;;;4978946;28;20027;-86
2021/12/31 13:32:40;;;;;;;14.73;6.43;;;;;;;;;;4978342;28;20037;-86
2021/12/31 13:35:07;;;;;;;10.77;5.22;;;;;;;;;;4993866;28;20088;-86
2021/12/31 13:37:38;;;;;;;10.43;4.70;;;;;;;;;;4996431;28;20023;-86
2021/12/31 13:40:19;;;;;;;8.13;4.72;;;;;;;;;;4995172;28;20027;-85
2021/12/31 13:43:03;;;;;;;10.25;5.57;;;;;;;;;;4979664;28;20034;-85
2021/12/31 13:45:29;;;;;;;8.02;4.78;;;;;;;;;;4978840;28;20031;-83
2021/12/31 13:47:56;;;;;;;9.02;4.97;;;;;;;;;;4997753;28;20038;-85
2021/12/31 13:50:23;;;;;;;9.70;5.13;;;;;;;;;;4984171;28;20026;-85
2021/12/31 13:52:50;;;;;;;12.18;5.75;;;;;;;;;;4986139;28;20449;-85
2021/12/31 13:55:17;;;;;;;10.52;5.10;;;;;;;;;;5001999;28;20054;-84
2021/12/31 13:58:00;;;;;;;11.07;6.10;;;;;;;;;;5002795;28;20037;-84
2021/12/31 14:00:39;;;;;;;8.98;5.80;;;;;;;;;;5001268;28;20124;-86
2021/12/31 14:03:18;;;;;;;11.85;5.88;;;;;;;;;;5004766;28;20030;-87
2021/12/31 14:05:53;;;;;;;10.85;5.90;;;;;;;;;;5006883;28;20061;-85
2021/12/31 14:11:32;;;;;;;10.02;4.97;;;;;;;;;;5002606;28;20093;-88
2021/12/31 14:17:05;;;;;;;11.32;4.63;;;;;;;;;;4945042;28;20047;-90
2021/12/31 14:20:00;;;;;;;;;;;;;;;;;;;;;
2021/12/31 14:25:51;;;;;;;10.30;4.80;;;;;;;;;;5001908;28;20050;-86
2021/12/31 14:28:20;;;;;;;10.07;5.72;;;;;;;;;;4988996;28;20545;-85
2021/12/31 14:33:48;;;;;;;6.10;3.92;;;;;;;;;;5769627;23;20109;-85
2021/12/31 14:36:14;;;;;;;6.95;4.80;;;;;;;;;;5006260;28;20026;-86
2021/12/31 14:38:42;;;;;;;6.28;4.32;;;;;;;;;;5008690;28;20030;-86
2021/12/31 14:41:35;;;;;;;8.70;4.50;;;;;;;;;;4981209;28;20049;-87
2021/12/31 14:44:01;;;;;;;12.02;4.70;;;;;;;;;;4958335;28;20030;-86
2021/12/31 14:46:28;;;;;;;7.88;4.10;;;;;;;;;;4960651;28;20644;-87
2021/12/31 14:48:54;;;;;;;7.20;4.03;;;;;;;;;;4960268;28;20045;-85
2021/12/31 14:51:20;;;;;;;11.65;4.65;;;;;;;;;;4979286;28;20034;-86
2021/12/31 14:53:46;;;;;;;8.63;4.88;;;;;;;;;;4969026;28;20043;-86
2021/12/31 14:56:12;;;;;;;10.32;4.45;;;;;;;;;;4959705;28;20027;-86
2021/12/31 14:58:40;;;;;;;8.40;4.32;;;;;;;;;;4961829;29;20051;-86
2021/12/31 15:01:06;;;;;;;5.30;3.90;;;;;;;;;;4964151;29;20027;-86
2021/12/31 15:03:32;;;;;;;5.85;3.60;;;;;;;;;;4972883;28;20023;-86
2021/12/31 15:06:00;;;;;;;9.30;4.28;;;;;;;;;;4980050;28;20037;-86
2021/12/31 15:08:26;;;;;;;8.30;3.67;;;;;;;;;;4982371;28;20031;-86